Time;durP1;ratioP1;P1;durP2;ratioP2;P2;SDS_P1;SDS_P2;PMS_P1;PMS_P2;Temp;Humidity;BMP_temperature;BMP_pressure;BME280_temperature;BME280_humidity;BME280_pressure;Samples;Min_cycle;Max_cycle;Signal;HPM_P1;HPM_P2
2021/12/26 00:00:34;;;;;;;1.30;0.82;;;16.40;35.60;;;;;;5012944;28;20489;-70
2021/12/26 00:02:59;;;;;;;1.13;0.70;;;16.50;35.50;;;;;;5012645;28;20033;-70
2021/12/26 00:05:27;;;;;;;1.10;0.60;;;16.40;35.50;;;;;;5012787;28;20050;-70
2021/12/26 00:07:53;;;;;;;0.93;0.65;;;16.50;35.50;;;;;;5012764;28;20014;-70
2021/12/26 00:10:24;;;;;;;0.77;0.57;;;16.40;35.50;;;;;;5012891;28;20084;-70
2021/12/26 00:12:50;;;;;;;1.40;0.85;;;16.40;35.50;;;;;;5012728;28;20072;-70
2021/12/26 00:15:16;;;;;;;1.20;0.80;;;16.40;35.40;;;;;;5012850;28;20030;-70
2021/12/26 00:17:42;;;;;;;1.15;0.82;;;16.40;35.40;;;;;;5006727;28;20037;-70
2021/12/26 00:20:10;;;;;;;1.50;0.85;;;16.40;35.40;;;;;;4993158;28;20031;-70
2021/12/26 00:22:36;;;;;;;1.27;0.88;;;16.40;35.40;;;;;;4992966;28;20019;-70
2021/12/26 00:25:02;;;;;;;1.00;0.60;;;16.40;35.30;;;;;;4993070;28;20034;-70
2021/12/26 00:27:28;;;;;;;1.25;0.70;;;16.40;36.30;;;;;;4992992;28;20026;-70
2021/12/26 00:29:53;;;;;;;1.25;0.68;;;16.40;35.30;;;;;;5009386;28;20399;-70
2021/12/26 00:32:19;;;;;;;1.13;0.88;;;16.40;35.30;;;;;;5011431;28;20041;-70
2021/12/26 00:34:45;;;;;;;1.40;0.77;;;16.40;35.30;;;;;;5012484;28;20026;-70
2021/12/26 00:37:11;;;;;;;0.63;0.60;;;16.40;35.30;;;;;;5011212;28;20104;-70
2021/12/26 00:39:37;;;;;;;1.15;0.77;;;16.40;35.30;;;;;;5011207;28;20117;-70
2021/12/26 00:42:03;;;;;;;1.38;0.88;;;16.40;35.30;;;;;;5011256;28;20030;-70
2021/12/26 00:44:29;;;;;;;2.20;1.00;;;16.40;35.30;;;;;;5012328;28;20038;-70
2021/12/26 00:46:55;;;;;;;1.15;0.68;;;16.40;35.30;;;;;;5012456;28;20022;-70
2021/12/26 00:49:22;;;;;;;1.75;0.75;;;16.40;35.30;;;;;;5011096;28;20025;-70
2021/12/26 00:51:49;;;;;;;1.10;0.70;;;16.40;35.30;;;;;;5012538;28;20030;-70
2021/12/26 00:54:14;;;;;;;1.13;0.70;;;16.40;35.30;;;;;;5012325;28;20026;-70
2021/12/26 00:56:40;;;;;;;1.88;0.90;;;16.40;35.30;;;;;;5012541;28;20025;-70
2021/12/26 00:59:06;;;;;;;1.25;0.73;;;16.40;35.30;;;;;;5012330;28;20030;-70
2021/12/26 01:01:31;;;;;;;0.95;0.60;;;16.40;35.30;;;;;;5012277;28;20049;-70
2021/12/26 01:03:57;;;;;;;2.20;0.73;;;16.40;35.30;;;;;;5012167;28;20025;-70
2021/12/26 01:06:24;;;;;;;1.20;0.80;;;16.40;35.30;;;;;;5012250;28;20042;-70
2021/12/26 01:08:51;;;;;;;0.75;0.70;;;16.40;35.30;;;;;;5012258;28;20029;-70
2021/12/26 01:11:33;;;;;;;1.15;0.60;;;16.40;35.30;;;;;;5012348;28;20022;-70
2021/12/26 01:14:00;;;;;;;1.00;0.75;;;16.40;35.30;;;;;;5012471;28;20049;-70
2021/12/26 01:16:27;;;;;;;1.77;1.00;;;16.40;35.40;;;;;;5013386;28;20076;-70
2021/12/26 01:18:55;;;;;;;1.02;0.82;;;16.30;35.20;;;;;;5001468;28;20019;-70
2021/12/26 01:21:25;;;;;;;1.05;0.80;;;16.30;35.20;;;;;;4996231;28;20053;-70
2021/12/26 01:23:57;;;;;;;2.35;0.98;;;16.40;35.30;;;;;;4996069;28;20030;-70
2021/12/26 01:26:23;;;;;;;1.33;0.80;;;16.40;35.20;;;;;;4996136;28;20538;-70
2021/12/26 01:28:49;;;;;;;1.15;0.60;;;16.40;35.30;;;;;;5003590;28;20014;-70
2021/12/26 01:31:20;;;;;;;0.93;0.60;;;16.30;35.20;;;;;;5015564;28;20405;-70
2021/12/26 01:33:57;;;;;;;0.70;0.60;;;16.30;35.30;;;;;;5015562;28;20097;-70
2021/12/26 01:36:23;;;;;;;1.38;0.70;;;16.30;35.20;;;;;;5015542;28;20029;-70
2021/12/26 01:38:48;;;;;;;1.00;0.80;;;16.30;35.20;;;;;;5015213;28;20470;-70
2021/12/26 01:41:16;;;;;;;1.60;0.82;;;16.30;35.20;;;;;;5015493;28;20021;-70
2021/12/26 01:43:46;;;;;;;1.30;0.90;;;16.30;35.20;;;;;;5015206;28;20418;-70
2021/12/26 01:46:13;;;;;;;1.40;0.80;;;16.30;35.20;;;;;;5014178;28;20390;-70
2021/12/26 01:48:39;;;;;;;1.27;0.80;;;16.30;35.20;;;;;;5015168;28;20026;-70
2021/12/26 01:51:05;;;;;;;1.30;0.80;;;16.30;35.10;;;;;;5015269;28;20040;-70
2021/12/26 01:53:37;;;;;;;1.10;0.70;;;16.30;35.10;;;;;;5015167;28;20092;-70
2021/12/26 01:56:08;;;;;;;1.42;0.85;;;16.30;35.10;;;;;;5015204;28;20421;-70
2021/12/26 01:58:36;;;;;;;1.50;0.70;;;16.30;35.10;;;;;;5014946;28;20030;-70
2021/12/26 02:01:10;;;;;;;2.10;1.00;;;16.30;35.10;;;;;;5013754;28;20022;-70
2021/12/26 02:03:37;;;;;;;1.15;0.80;;;16.30;35.10;;;;;;5014840;28;20109;-70
2021/12/26 02:06:04;;;;;;;1.10;0.73;;;16.30;35.10;;;;;;5014704;28;20498;-70
2021/12/26 02:08:30;;;;;;;1.45;1.00;;;16.30;35.10;;;;;;5014742;28;20030;-70
2021/12/26 02:10:59;;;;;;;1.27;0.80;;;16.30;35.10;;;;;;5014768;28;20026;-70
2021/12/26 02:13:25;;;;;;;1.00;0.82;;;16.30;35.00;;;;;;5014708;28;20028;-70
2021/12/26 02:15:51;;;;;;;1.00;0.70;;;16.30;35.00;;;;;;5014782;28;20064;-70
2021/12/26 02:18:17;;;;;;;0.98;0.70;;;16.30;35.00;;;;;;5004059;28;20030;-70
2021/12/26 02:23:26;;;;;;;1.13;0.90;;;16.30;35.00;;;;;;4994952;28;20042;-70
2021/12/26 02:28:25;;;;;;;0.95;0.85;;;16.30;35.00;;;;;;4998406;28;20017;-70
2021/12/26 02:30:52;;;;;;;1.25;0.68;;;16.30;35.00;;;;;;5014300;28;20022;-70
2021/12/26 02:33:19;;;;;;;1.55;0.75;;;16.30;35.00;;;;;;5014445;28;20029;-70
2021/12/26 02:35:45;;;;;;;0.98;0.77;;;16.30;35.00;;;;;;5014314;28;20079;-70
2021/12/26 02:38:12;;;;;;;1.40;0.70;;;16.30;34.90;;;;;;5014044;28;20490;-70
2021/12/26 02:40:39;;;;;;;1.67;1.10;;;16.30;34.90;;;;;;5014307;28;20087;-70
2021/12/26 02:43:06;;;;;;;1.20;0.85;;;16.30;34.90;;;;;;5014254;28;20026;-70
2021/12/26 02:45:33;;;;;;;1.02;0.73;;;16.30;34.90;;;;;;5014164;28;20160;-70
2021/12/26 02:47:59;;;;;;;1.52;0.90;;;16.30;34.90;;;;;;5012901;28;20092;-70
2021/12/26 02:50:28;;;;;;;1.27;0.77;;;16.30;34.90;;;;;;5014034;28;20021;-70
2021/12/26 02:52:55;;;;;;;1.10;0.75;;;16.30;34.80;;;;;;5014024;28;20036;-70
2021/12/26 02:55:22;;;;;;;1.30;0.85;;;16.20;34.80;;;;;;5014102;28;20024;-70
2021/12/26 02:57:50;;;;;;;2.20;0.80;;;16.20;34.70;;;;;;5014009;28;20022;-70
2021/12/26 03:00:19;;;;;;;0.90;0.73;;;16.20;34.70;;;;;;5013728;28;20034;-70
2021/12/26 03:02:48;;;;;;;1.25;0.70;;;16.20;34.70;;;;;;5013800;28;20036;-70
2021/12/26 03:05:15;;;;;;;1.27;0.70;;;16.20;34.80;;;;;;5013581;28;20037;-70
2021/12/26 03:07:41;;;;;;;1.30;0.80;;;16.20;34.70;;;;;;5012630;28;20084;-70
2021/12/26 03:10:11;;;;;;;0.85;0.77;;;16.20;34.80;;;;;;5013713;28;20030;-70
2021/12/26 03:12:41;;;;;;;1.15;0.95;;;16.20;34.70;;;;;;5013747;28;20053;-70
2021/12/26 03:15:10;;;;;;;1.27;0.80;;;16.20;34.70;;;;;;5013593;28;20113;-70
2021/12/26 03:17:36;;;;;;;1.42;0.80;;;16.20;34.70;;;;;;5009927;28;20057;-70
2021/12/26 03:20:06;;;;;;;1.13;0.80;;;16.20;34.70;;;;;;4993968;28;20029;-70
2021/12/26 03:22:32;;;;;;;1.17;0.63;;;16.20;34.70;;;;;;4993861;28;20046;-70
2021/12/26 03:24:57;;;;;;;1.13;0.73;;;16.20;34.70;;;;;;4993865;28;20386;-70
2021/12/26 03:27:23;;;;;;;1.58;0.70;;;16.20;34.70;;;;;;4993861;28;20033;-70
2021/12/26 03:29:48;;;;;;;1.58;0.90;;;16.20;34.70;;;;;;5009385;28;20475;-70
2021/12/26 03:32:14;;;;;;;1.05;0.80;;;16.20;34.70;;;;;;5012076;28;20401;-70
2021/12/26 03:34:47;;;;;;;1.25;0.80;;;16.20;34.70;;;;;;5013402;28;20109;-70
2021/12/26 03:37:13;;;;;;;0.95;0.70;;;16.20;34.60;;;;;;5013160;28;20104;-70
2021/12/26 03:39:38;;;;;;;1.67;0.88;;;16.20;34.60;;;;;;5012904;28;20145;-70
2021/12/26 03:42:04;;;;;;;0.90;0.60;;;16.20;34.70;;;;;;5013145;28;20386;-70
2021/12/26 03:44:30;;;;;;;1.63;0.88;;;16.20;34.70;;;;;;5013156;28;20033;-70
2021/12/26 03:46:55;;;;;;;0.82;0.60;;;16.20;34.60;;;;;;5013168;28;20021;-70
2021/12/26 03:49:21;;;;;;;1.02;0.80;;;16.20;34.70;;;;;;5013048;28;20018;-70
2021/12/26 03:51:46;;;;;;;2.20;1.10;;;16.20;34.60;;;;;;5011785;28;20021;-70
2021/12/26 03:54:12;;;;;;;1.40;1.00;;;16.20;34.70;;;;;;5013306;28;20034;-70
2021/12/26 03:56:38;;;;;;;1.35;0.70;;;16.20;34.60;;;;;;5011990;28;20545;-70
2021/12/26 03:59:03;;;;;;;1.83;0.80;;;16.20;34.60;;;;;;5013050;28;20057;-70
2021/12/26 04:01:29;;;;;;;1.52;0.75;;;16.20;34.60;;;;;;5012841;28;20029;-70
2021/12/26 04:03:55;;;;;;;2.10;1.00;;;16.20;34.60;;;;;;5011612;28;20084;-70
2021/12/26 04:06:20;;;;;;;2.13;1.02;;;16.20;34.60;;;;;;5012715;28;20111;-70
2021/12/26 04:08:46;;;;;;;1.33;0.70;;;16.20;34.60;;;;;;5012852;28;20041;-70
2021/12/26 04:11:11;;;;;;;1.27;0.80;;;16.10;34.50;;;;;;5012811;28;20033;-70
2021/12/26 04:13:37;;;;;;;1.15;0.70;;;16.20;34.60;;;;;;5012857;28;20176;-70
2021/12/26 04:16:03;;;;;;;0.57;0.52;;;16.10;34.50;;;;;;5011613;28;20091;-70
2021/12/26 04:18:29;;;;;;;0.85;0.60;;;16.10;34.50;;;;;;5001660;28;20364;-70
2021/12/26 04:20:54;;;;;;;1.50;0.93;;;16.10;34.50;;;;;;4993155;28;20034;-70
2021/12/26 04:23:20;;;;;;;2.25;0.90;;;16.10;34.50;;;;;;4992988;28;20033;-70
2021/12/26 04:25:46;;;;;;;1.13;0.80;;;16.10;34.50;;;;;;4993095;28;20479;-70
2021/12/26 04:28:17;;;;;;;1.10;0.80;;;16.10;34.40;;;;;;4995619;28;20478;-70
2021/12/26 04:30:43;;;;;;;1.02;0.77;;;16.10;34.40;;;;;;5012561;28;20515;-70
2021/12/26 04:33:09;;;;;;;2.20;0.80;;;16.10;34.50;;;;;;5012588;28;20433;-70
2021/12/26 04:35:34;;;;;;;1.42;0.80;;;16.10;34.50;;;;;;5012754;28;20030;-70
2021/12/26 04:38:00;;;;;;;0.98;0.80;;;16.10;34.40;;;;;;5012430;28;20405;-70
2021/12/26 04:40:25;;;;;;;1.08;0.80;;;16.10;34.40;;;;;;5012551;28;20490;-70
2021/12/26 04:42:51;;;;;;;1.00;0.68;;;16.10;35.40;;;;;;5011090;28;20064;-70
2021/12/26 04:45:17;;;;;;;0.98;0.70;;;16.10;34.50;;;;;;5012639;28;20018;-70
2021/12/26 04:47:44;;;;;;;1.42;0.93;;;16.10;34.50;;;;;;5012486;28;20109;-70
2021/12/26 04:50:13;;;;;;;1.17;0.73;;;16.10;34.40;;;;;;5012625;28;20409;-70
2021/12/26 04:52:41;;;;;;;2.35;0.80;;;16.10;34.40;;;;;;5015488;28;20022;-70
2021/12/26 04:55:07;;;;;;;1.42;1.00;;;16.10;34.40;;;;;;5016311;28;20559;-70
2021/12/26 04:57:33;;;;;;;1.40;0.90;;;16.10;34.40;;;;;;5015001;28;20034;-70
2021/12/26 04:59:59;;;;;;;1.63;0.70;;;16.10;34.40;;;;;;5014931;28;20032;-70
2021/12/26 05:02:27;;;;;;;0.95;0.73;;;16.10;34.40;;;;;;5016072;28;20028;-70
2021/12/26 05:04:52;;;;;;;1.30;0.93;;;16.10;34.40;;;;;;5015837;28;20026;-70
2021/12/26 05:07:18;;;;;;;1.35;0.90;;;16.10;34.40;;;;;;5016041;28;20030;-70
2021/12/26 05:09:45;;;;;;;0.93;0.82;;;16.10;34.40;;;;;;5016063;28;20036;-70
2021/12/26 05:12:10;;;;;;;1.13;0.90;;;16.10;34.40;;;;;;5015940;28;20029;-70
2021/12/26 05:14:36;;;;;;;1.30;0.80;;;16.10;34.40;;;;;;5014664;28;20034;-70
2021/12/26 05:17:02;;;;;;;1.20;0.80;;;16.10;34.40;;;;;;5016173;28;20506;-70
2021/12/26 05:19:27;;;;;;;1.23;0.88;;;16.10;34.40;;;;;;4996865;28;20031;-70
2021/12/26 05:21:53;;;;;;;1.13;0.60;;;16.10;34.40;;;;;;4996230;28;20429;-70
2021/12/26 05:24:18;;;;;;;1.65;0.80;;;16.10;34.40;;;;;;4996040;28;20018;-70
2021/12/26 05:26:44;;;;;;;1.58;0.60;;;16.10;35.40;;;;;;4994825;28;20026;-70
2021/12/26 05:29:09;;;;;;;1.13;0.93;;;16.10;34.40;;;;;;5005040;28;20022;-70
2021/12/26 05:31:35;;;;;;;1.77;0.95;;;16.10;34.40;;;;;;5015642;28;20026;-70
2021/12/26 05:34:01;;;;;;;1.02;0.73;;;16.10;34.40;;;;;;5015482;28;20032;-70
2021/12/26 05:36:26;;;;;;;1.23;0.80;;;16.10;34.40;;;;;;5015491;28;20105;-70
2021/12/26 05:38:52;;;;;;;1.05;0.70;;;16.10;34.40;;;;;;5014051;28;20018;-70
2021/12/26 05:41:17;;;;;;;1.50;0.73;;;16.10;34.40;;;;;;5015516;28;20029;-70
2021/12/26 05:43:43;;;;;;;0.68;0.63;;;16.10;34.40;;;;;;5015277;28;20030;-70
2021/12/26 05:46:08;;;;;;;1.38;0.85;;;16.10;34.40;;;;;;5015399;28;20014;-70
2021/12/26 05:48:35;;;;;;;1.42;0.80;;;16.10;34.40;;;;;;5015443;28;20418;-70
2021/12/26 05:51:00;;;;;;;1.33;0.90;;;16.10;34.30;;;;;;5014051;28;20212;-70
2021/12/26 05:53:26;;;;;;;1.25;1.00;;;16.10;34.30;;;;;;5015100;28;20105;-70
2021/12/26 05:55:52;;;;;;;0.88;0.73;;;16.10;34.40;;;;;;5015244;28;20026;-70
2021/12/26 05:58:17;;;;;;;1.98;1.00;;;16.10;34.30;;;;;;5015023;28;20058;-70
2021/12/26 06:00:43;;;;;;;1.75;0.95;;;16.10;34.40;;;;;;5013822;28;20418;-70
2021/12/26 06:03:08;;;;;;;1.60;0.88;;;16.10;34.30;;;;;;5014672;28;20029;-70
2021/12/26 06:05:34;;;;;;;1.27;0.93;;;16.10;34.30;;;;;;5014847;28;20041;-70
2021/12/26 06:07:59;;;;;;;1.83;1.00;;;16.10;34.40;;;;;;5014919;28;20475;-70
2021/12/26 06:10:25;;;;;;;1.90;0.95;;;16.10;34.30;;;;;;5014790;28;20018;-70
2021/12/26 06:12:51;;;;;;;1.02;0.88;;;16.10;34.30;;;;;;5014882;28;20030;-70
2021/12/26 06:15:16;;;;;;;1.33;0.70;;;16.10;34.40;;;;;;5014695;28;20367;-70
2021/12/26 06:17:42;;;;;;;1.77;0.82;;;16.10;34.30;;;;;;5008880;28;20025;-70
2021/12/26 06:20:14;;;;;;;1.30;0.70;;;16.10;34.30;;;;;;4995060;28;20033;-70
2021/12/26 06:22:44;;;;;;;2.20;0.93;;;16.10;34.40;;;;;;4995166;28;20096;-70
2021/12/26 06:25:11;;;;;;;1.60;0.93;;;16.10;34.30;;;;;;4995219;28;20026;-70
2021/12/26 06:27:37;;;;;;;1.52;0.90;;;16.10;34.40;;;;;;4995046;28;20046;-70
2021/12/26 06:30:05;;;;;;;1.13;0.77;;;16.10;34.30;;;;;;5012372;28;20025;-70
2021/12/26 06:32:31;;;;;;;1.50;0.65;;;16.10;34.30;;;;;;5014464;28;20026;-70
2021/12/26 06:34:56;;;;;;;1.45;0.80;;;16.10;34.30;;;;;;5014393;28;20431;-70
2021/12/26 06:37:22;;;;;;;1.10;0.80;;;16.10;34.30;;;;;;5014552;28;20072;-70
2021/12/26 06:39:48;;;;;;;1.77;0.80;;;16.10;34.30;;;;;;5014126;28;20021;-70
2021/12/26 06:42:13;;;;;;;0.90;0.63;;;16.10;34.30;;;;;;5014296;28;20520;-70
2021/12/26 06:44:39;;;;;;;1.30;0.80;;;16.10;34.20;;;;;;5014219;28;20029;-70
2021/12/26 06:47:06;;;;;;;1.40;0.90;;;16.10;34.30;;;;;;5014308;28;20478;-70
2021/12/26 06:49:32;;;;;;;1.17;0.80;;;16.10;34.30;;;;;;5014056;28;20025;-70
2021/12/26 06:51:57;;;;;;;1.13;0.95;;;16.10;34.30;;;;;;5014207;28;20049;-70
2021/12/26 06:54:23;;;;;;;1.50;0.88;;;16.10;34.20;;;;;;5012713;28;20090;-70
2021/12/26 06:56:49;;;;;;;0.98;0.70;;;16.10;34.30;;;;;;5014074;28;20430;-70
2021/12/26 06:59:15;;;;;;;0.80;0.68;;;16.10;34.30;;;;;;5013897;28;20033;-70
2021/12/26 07:01:41;;;;;;;1.00;0.70;;;16.10;34.20;;;;;;5013911;28;20030;-70
2021/12/26 07:04:06;;;;;;;1.02;0.80;;;16.10;34.20;;;;;;5013803;28;20478;-70
2021/12/26 07:06:32;;;;;;;1.58;0.82;;;16.10;34.20;;;;;;5013695;28;20573;-70
2021/12/26 07:08:58;;;;;;;1.10;0.80;;;16.10;34.30;;;;;;5013788;28;20486;-70
2021/12/26 07:11:23;;;;;;;1.58;0.80;;;16.10;34.20;;;;;;5013780;28;20026;-70
2021/12/26 07:13:49;;;;;;;1.75;0.80;;;16.10;34.20;;;;;;5013173;28;20061;-70
2021/12/26 07:16:14;;;;;;;1.30;0.77;;;16.10;34.30;;;;;;5013599;28;20041;-70
2021/12/26 07:18:40;;;;;;;1.10;1.00;;;16.10;35.20;;;;;;5001065;28;20054;-70
2021/12/26 07:21:05;;;;;;;2.47;0.85;;;16.10;34.20;;;;;;4993961;28;20033;-70
2021/12/26 07:23:31;;;;;;;0.95;0.75;;;16.10;34.20;;;;;;4993757;28;20430;-70
2021/12/26 07:25:56;;;;;;;1.15;0.88;;;16.10;34.20;;;;;;4993810;28;20022;-70
2021/12/26 07:28:22;;;;;;;1.08;0.73;;;16.10;34.20;;;;;;4996635;28;20026;-70
2021/12/26 07:30:48;;;;;;;0.95;0.68;;;16.10;34.20;;;;;;5012103;28;20018;-70
2021/12/26 07:33:13;;;;;;;0.95;0.77;;;16.10;34.20;;;;;;5013390;28;20109;-70
2021/12/26 07:35:39;;;;;;;1.17;0.80;;;16.10;34.20;;;;;;5013319;28;20061;-70
2021/12/26 07:38:04;;;;;;;1.58;0.90;;;16.10;34.20;;;;;;5013202;28;20091;-70
2021/12/26 07:40:30;;;;;;;1.10;0.73;;;16.10;34.20;;;;;;5013217;28;20478;-70
2021/12/26 07:42:56;;;;;;;1.15;0.70;;;16.00;34.10;;;;;;5011892;28;20113;-70
2021/12/26 07:45:21;;;;;;;1.33;0.80;;;16.00;34.10;;;;;;5013107;28;20037;-70
2021/12/26 07:47:47;;;;;;;1.25;0.80;;;16.00;34.10;;;;;;5013257;28;20093;-70
2021/12/26 07:50:12;;;;;;;1.40;0.75;;;16.00;34.10;;;;;;5011720;28;20026;-70
2021/12/26 07:52:41;;;;;;;1.23;0.73;;;16.00;34.10;;;;;;5013150;28;20026;-70
2021/12/26 07:55:11;;;;;;;1.00;0.70;;;16.00;34.10;;;;;;5013041;28;20091;-70
2021/12/26 07:57:37;;;;;;;2.55;0.80;;;16.00;34.10;;;;;;5011769;28;20030;-70
2021/12/26 08:00:05;;;;;;;0.98;0.70;;;16.00;34.10;;;;;;5012913;28;20072;-70
2021/12/26 08:02:31;;;;;;;1.02;0.73;;;16.00;34.10;;;;;;5012770;28;20064;-70
2021/12/26 08:04:56;;;;;;;2.17;0.85;;;16.00;34.10;;;;;;5012755;28;20084;-70
2021/12/26 08:07:22;;;;;;;1.00;0.70;;;16.00;34.00;;;;;;5011773;28;20439;-70
2021/12/26 08:09:47;;;;;;;1.52;0.68;;;16.00;34.10;;;;;;5012734;28;20364;-70
2021/12/26 08:12:13;;;;;;;1.70;0.80;;;16.00;34.00;;;;;;5012781;28;20449;-70
2021/12/26 08:14:39;;;;;;;1.45;0.70;;;16.00;34.00;;;;;;5012794;28;20110;-70
2021/12/26 08:17:05;;;;;;;1.35;0.90;;;16.00;34.10;;;;;;5012695;28;20042;-70
2021/12/26 08:19:30;;;;;;;0.75;0.60;;;16.00;34.10;;;;;;4993537;28;20030;-70
2021/12/26 08:21:56;;;;;;;1.77;0.93;;;16.00;34.00;;;;;;4991791;28;20041;-70
2021/12/26 08:24:24;;;;;;;1.13;0.75;;;16.00;34.00;;;;;;4993026;28;20018;-70
2021/12/26 08:26:51;;;;;;;2.15;0.80;;;16.00;34.00;;;;;;4994963;28;20019;-70
2021/12/26 08:29:20;;;;;;;1.17;0.90;;;16.00;34.00;;;;;;5008497;28;20010;-70
2021/12/26 08:31:45;;;;;;;1.90;0.82;;;16.00;34.00;;;;;;5016698;28;20171;-70
2021/12/26 08:34:11;;;;;;;1.55;0.80;;;16.00;34.00;;;;;;5015477;28;20045;-70
2021/12/26 08:36:36;;;;;;;2.47;0.93;;;16.00;34.00;;;;;;5016540;28;20493;-70
2021/12/26 08:39:03;;;;;;;1.35;0.93;;;16.00;34.00;;;;;;5015253;28;20072;-70
2021/12/26 08:41:30;;;;;;;1.73;0.95;;;16.00;34.00;;;;;;5016567;28;20022;-70
2021/12/26 08:43:55;;;;;;;1.25;0.85;;;16.00;34.00;;;;;;5015139;28;20018;-70
2021/12/26 08:46:22;;;;;;;1.38;0.80;;;16.00;34.00;;;;;;5016433;28;20026;-70
2021/12/26 08:48:48;;;;;;;1.02;0.88;;;16.00;34.00;;;;;;5016452;28;20056;-70
2021/12/26 08:51:14;;;;;;;0.80;0.70;;;16.00;34.00;;;;;;5015390;28;20045;-70
2021/12/26 08:53:39;;;;;;;0.93;0.70;;;16.00;34.00;;;;;;5016306;28;20029;-70
2021/12/26 08:56:05;;;;;;;1.38;0.90;;;16.00;34.00;;;;;;5014943;28;20445;-70
2021/12/26 08:58:31;;;;;;;0.95;0.70;;;16.00;33.90;;;;;;5015016;28;20022;-70
2021/12/26 09:00:56;;;;;;;0.90;0.70;;;16.00;33.90;;;;;;5016175;28;20075;-70
2021/12/26 09:03:23;;;;;;;1.10;0.80;;;16.00;33.90;;;;;;5015920;28;20026;-70
2021/12/26 09:05:48;;;;;;;0.85;0.73;;;16.00;34.00;;;;;;5015914;28;20057;-70
2021/12/26 09:08:14;;;;;;;0.98;0.73;;;16.00;34.00;;;;;;5016068;28;20386;-70
2021/12/26 09:10:40;;;;;;;1.73;0.93;;;16.00;33.90;;;;;;5016006;28;20026;-70
2021/12/26 09:13:07;;;;;;;1.05;0.60;;;16.00;34.00;;;;;;5015982;28;20553;-70
2021/12/26 09:15:34;;;;;;;0.93;0.70;;;16.00;33.90;;;;;;5015917;28;20034;-70
2021/12/26 09:18:00;;;;;;;0.80;0.70;;;16.00;33.90;;;;;;5008800;28;20479;-70
2021/12/26 09:20:27;;;;;;;0.93;0.73;;;16.00;33.80;;;;;;4994928;28;20030;-70
2021/12/26 09:22:53;;;;;;;1.42;0.95;;;16.00;33.80;;;;;;4996182;28;20100;-70
2021/12/26 09:25:19;;;;;;;1.27;0.82;;;16.00;33.90;;;;;;4996152;28;20467;-70
2021/12/26 09:27:44;;;;;;;1.35;0.90;;;16.00;33.80;;;;;;4996071;28;20363;-70
2021/12/26 09:30:12;;;;;;;1.63;0.88;;;16.00;33.90;;;;;;5014578;28;20050;-70
2021/12/26 09:32:38;;;;;;;1.48;0.80;;;16.00;33.80;;;;;;5015702;28;20104;-70
2021/12/26 09:35:05;;;;;;;1.23;0.90;;;16.00;33.80;;;;;;5015621;28;20486;-70
2021/12/26 09:37:31;;;;;;;1.17;0.70;;;16.00;33.80;;;;;;5014845;28;20033;-70
2021/12/26 09:39:57;;;;;;;1.00;0.80;;;16.00;33.80;;;;;;5015379;28;20545;-70
2021/12/26 09:42:24;;;;;;;1.10;0.70;;;16.00;33.90;;;;;;5015367;28;20033;-70
2021/12/26 09:44:50;;;;;;;1.77;0.98;;;16.00;33.80;;;;;;5015340;28;20430;-70
2021/12/26 09:47:16;;;;;;;1.10;0.65;;;16.00;33.80;;;;;;5015174;28;20018;-70
2021/12/26 09:49:41;;;;;;;1.15;0.68;;;16.00;33.90;;;;;;5015290;28;20033;-70
2021/12/26 09:52:08;;;;;;;0.82;0.70;;;16.00;33.80;;;;;;5015277;28;20029;-70
2021/12/26 09:54:35;;;;;;;1.42;1.10;;;16.00;33.80;;;;;;5015206;28;20040;-70
2021/12/26 09:57:01;;;;;;;1.52;0.70;;;16.00;33.80;;;;;;5015049;28;20364;-70
2021/12/26 09:59:30;;;;;;;1.48;1.00;;;16.00;33.80;;;;;;5013894;28;20046;-70
2021/12/26 10:02:05;;;;;;;2.17;0.90;;;16.00;33.80;;;;;;5015015;28;20057;-70
2021/12/26 10:04:33;;;;;;;1.35;0.70;;;16.00;33.80;;;;;;5015027;28;20028;-70
2021/12/26 10:07:00;;;;;;;1.00;0.70;;;16.00;33.80;;;;;;5014983;28;20042;-70
2021/12/26 10:09:27;;;;;;;1.52;0.90;;;16.00;33.80;;;;;;5014890;28;20032;-70
2021/12/26 10:11:56;;;;;;;1.58;0.80;;;16.00;33.80;;;;;;5014885;28;20482;-70
2021/12/26 10:14:24;;;;;;;1.42;0.80;;;16.00;33.80;;;;;;5014816;28;20080;-70
2021/12/26 10:17:09;;;;;;;1.80;0.77;;;16.00;33.80;;;;;;5014762;28;20022;-70
2021/12/26 10:19:37;;;;;;;0.88;0.70;;;16.00;33.80;;;;;;5014808;28;20027;-70
2021/12/26 10:22:05;;;;;;;1.60;0.98;;;16.00;33.90;;;;;;5014648;28;20030;-70
2021/12/26 10:24:36;;;;;;;1.77;0.90;;;16.00;33.90;;;;;;5014555;28;20442;-70
2021/12/26 10:27:08;;;;;;;0.77;0.77;;;16.00;33.90;;;;;;5014634;28;20014;-70
2021/12/26 10:29:35;;;;;;;0.80;0.63;;;16.00;33.90;;;;;;5014320;28;20021;-70
2021/12/26 10:32:37;;;;;;;1.02;0.88;;;16.00;33.90;;;;;;5014537;28;20105;-70
2021/12/26 10:35:14;;;;;;;1.17;0.80;;;16.00;33.70;;;;;;4972325;28;20037;-70
2021/12/26 10:37:45;;;;;;;1.67;0.85;;;16.00;33.90;;;;;;5014269;28;20022;-70
2021/12/26 10:40:21;;;;;;;0.98;0.88;;;16.00;34.00;;;;;;5014184;28;20084;-70
2021/12/26 10:42:51;;;;;;;1.23;0.80;;;16.00;33.90;;;;;;5014221;28;20026;-70
2021/12/26 10:45:20;;;;;;;0.95;0.70;;;16.00;34.00;;;;;;5014281;28;20371;-70
2021/12/26 10:47:59;;;;;;;1.63;0.90;;;16.00;34.00;;;;;;5014122;28;20022;-70
2021/12/26 10:50:28;;;;;;;1.25;0.90;;;16.00;34.00;;;;;;5012101;28;20022;-70
2021/12/26 10:52:59;;;;;;;1.25;1.10;;;16.00;34.00;;;;;;5014085;28;20026;-70
2021/12/26 10:55:36;;;;;;;1.48;0.93;;;16.00;34.00;;;;;;5014147;28;20022;-70
2021/12/26 10:58:11;;;;;;;1.42;0.82;;;16.00;34.00;;;;;;5012840;28;20029;-70
2021/12/26 11:00:49;;;;;;;1.17;0.80;;;16.00;34.00;;;;;;5014067;28;20021;-70
2021/12/26 11:03:23;;;;;;;1.73;0.88;;;16.00;34.00;;;;;;5013814;28;20105;-70
2021/12/26 11:05:55;;;;;;;1.48;0.90;;;16.00;34.00;;;;;;5012475;28;20133;-70
2021/12/26 11:08:34;;;;;;;1.00;0.77;;;16.00;34.00;;;;;;5012475;28;20585;-70
2021/12/26 11:11:15;;;;;;;1.30;0.70;;;16.00;34.00;;;;;;5013841;28;20030;-70
2021/12/26 11:13:41;;;;;;;0.93;0.80;;;16.10;34.10;;;;;;5013695;28;20075;-70
2021/12/26 11:16:07;;;;;;;1.08;0.93;;;16.00;34.10;;;;;;5013764;28;20022;-70
2021/12/26 11:18:36;;;;;;;1.85;1.10;;;16.10;34.10;;;;;;5001973;28;20497;-70
2021/12/26 11:21:20;;;;;;;1.00;0.90;;;16.10;34.10;;;;;;4994120;28;20721;-70
2021/12/26 11:23:47;;;;;;;1.77;1.10;;;16.10;34.10;;;;;;4993860;28;20030;-70
2021/12/26 11:26:16;;;;;;;1.40;0.90;;;16.10;34.20;;;;;;4993896;28;20099;-70
2021/12/26 11:28:46;;;;;;;1.55;1.05;;;16.10;34.20;;;;;;5000417;28;20026;-70
2021/12/26 11:31:20;;;;;;;1.83;1.00;;;16.10;34.10;;;;;;5013487;28;20132;-70
2021/12/26 11:33:54;;;;;;;1.27;0.82;;;16.00;34.10;;;;;;5013348;28;20386;-70
2021/12/26 11:36:19;;;;;;;2.28;1.35;;;16.10;34.20;;;;;;5013311;28;20521;-70
2021/12/26 11:38:47;;;;;;;1.95;0.95;;;16.10;34.20;;;;;;5013167;28;20093;-70
2021/12/26 11:41:23;;;;;;;2.15;1.02;;;16.10;34.20;;;;;;5012014;28;20040;-70
2021/12/26 11:44:03;;;;;;;1.55;1.00;;;16.10;34.20;;;;;;5011912;28;20057;-70
2021/12/26 11:46:50;;;;;;;1.67;1.00;;;16.10;34.10;;;;;;5013218;28;20030;-70
2021/12/26 11:49:41;;;;;;;1.98;1.15;;;16.10;34.30;;;;;;5013188;28;20029;-70
2021/12/26 11:52:21;;;;;;;1.10;0.75;;;16.10;34.30;;;;;;5013102;28;20033;-70
2021/12/26 11:55:09;;;;;;;1.50;0.90;;;16.10;34.20;;;;;;5013015;28;20056;-70
2021/12/26 11:58:12;;;;;;;1.25;0.80;;;16.10;34.30;;;;;;5013087;28;20386;-70
2021/12/26 12:00:41;;;;;;;1.67;0.93;;;16.10;34.30;;;;;;5012781;28;20033;-70
2021/12/26 12:03:18;;;;;;;1.48;1.00;;;16.10;35.40;;;;;;5012828;28;20032;-70
2021/12/26 12:05:44;;;;;;;1.52;1.00;;;16.10;34.40;;;;;;5012815;28;20042;-70
2021/12/26 12:08:36;;;;;;;1.40;1.08;;;16.10;34.50;;;;;;5012918;28;20390;-70
2021/12/26 12:11:04;;;;;;;1.45;0.90;;;16.10;34.30;;;;;;5011711;28;20034;-70
2021/12/26 12:13:39;;;;;;;1.85;1.20;;;16.10;34.50;;;;;;5011555;28;20026;-70
2021/12/26 12:16:07;;;;;;;1.45;1.02;;;16.10;34.40;;;;;;5012761;28;20105;-70
2021/12/26 12:18:37;;;;;;;1.52;0.90;;;16.10;34.50;;;;;;5000091;28;20022;-70
2021/12/26 12:21:12;;;;;;;1.80;1.00;;;16.10;34.40;;;;;;4991894;28;20556;-70
2021/12/26 12:23:56;;;;;;;1.52;0.95;;;16.10;34.40;;;;;;4993018;28;20026;-70
2021/12/26 12:26:44;;;;;;;1.88;1.10;;;16.20;34.40;;;;;;4993202;28;20533;-70
2021/12/26 12:29:13;;;;;;;1.83;1.10;;;16.20;34.50;;;;;;5003451;28;20021;-70
2021/12/26 12:31:39;;;;;;;1.45;1.10;;;16.20;34.60;;;;;;5011468;28;20018;-70
2021/12/26 12:34:12;;;;;;;2.25;1.10;;;16.20;34.60;;;;;;5012658;28;20029;-70
2021/12/26 12:36:42;;;;;;;1.67;1.25;;;16.20;34.60;;;;;;5012500;28;20018;-70
2021/12/26 12:39:16;;;;;;;2.00;1.20;;;16.20;34.60;;;;;;5012594;28;20502;-70
2021/12/26 12:41:45;;;;;;;1.10;0.90;;;16.20;34.60;;;;;;5012559;28;20057;-70
2021/12/26 12:44:35;;;;;;;1.25;0.98;;;16.20;34.60;;;;;;5012532;28;20084;-70
2021/12/26 12:47:17;;;;;;;1.10;0.95;;;16.20;34.60;;;;;;5012548;28;20018;-70
2021/12/26 12:49:43;;;;;;;1.40;0.95;;;16.20;34.60;;;;;;5012541;28;20044;-70
2021/12/26 12:52:50;;;;;;;1.73;1.08;;;16.20;34.70;;;;;;5012525;28;20517;-70
2021/12/26 12:55:20;;;;;;;1.95;1.02;;;16.20;34.60;;;;;;5012536;28;20029;-70
2021/12/26 12:57:51;;;;;;;1.80;0.98;;;16.20;34.70;;;;;;5012561;28;20474;-70